Time;durP1;ratioP1;P1;durP2;ratioP2;P2;SDS_P1;SDS_P2;PMS_P1;PMS_P2;Temp;Humidity;BMP_temperature;BMP_pressure;BME280_temperature;BME280_humidity;BME280_pressure;Samples;Min_cycle;Max_cycle;Signal;HPM_P1;HPM_P2
2022/11/30 00:00:48;;;;;;;39.03;25.25;;;;;;;;;;4404684;32;20345;-72
2022/11/30 00:03:13;;;;;;;;;;;;;;;;;;4406523;32;20531;-73
2022/11/30 00:05:39;;;;;;;37.60;25.05;;;;;;;;;;4407015;32;19933;-73
2022/11/30 00:08:04;;;;;;;38.08;25.27;;;;;;;;;;4405942;32;20520;-73
2022/11/30 00:10:29;;;;;;;;;;;;;;;;;;4406742;32;20107;-72
2022/11/30 00:12:54;;;;;;;40.65;26.62;;;;;;;;;;4401734;32;19957;-73
2022/11/30 00:15:19;;;;;;;;;;;;;;;;;;4392648;32;20084;-73
2022/11/30 00:17:45;;;;;;;31.58;22.90;;;;;;;;;;4389899;32;19942;-73
2022/11/30 00:20:10;;;;;;;37.17;25.37;;;;;;;;;;4390380;32;20061;-73
2022/11/30 00:22:35;;;;;;;;;;;;;;;;;;4390191;32;20336;-72
2022/11/30 00:25:02;;;;;;;35.15;23.20;;;;;;;;;;4389063;32;19952;-72
2022/11/30 00:27:28;;;;;;;34.03;20.37;;;;;;;;;;4388927;32;20030;-72
2022/11/30 00:29:53;;;;;;;;;;;;;;;;;;4390038;32;20061;-72
2022/11/30 00:32:18;;;;;;;32.95;21.08;;;;;;;;;;4390262;32;19993;-73
2022/11/30 00:34:43;;;;;;;37.90;20.55;;;;;;;;;;4389655;32;20340;-72
2022/11/30 00:37:08;;;;;;;;;;;;;;;;;;4390701;32;20062;-72
2022/11/30 00:39:33;;;;;;;39.25;21.33;;;;;;;;;;4388854;32;19949;-72
2022/11/30 00:41:58;;;;;;;30.52;20.42;;;;;;;;;;4390504;32;20050;-72
2022/11/30 00:44:23;;;;;;;;;;;;;;;;;;4402504;32;20049;-72
2022/11/30 00:46:49;;;;;;;30.83;21.02;;;;;;;;;;4405555;32;19950;-72
2022/11/30 00:49:14;;;;;;;32.32;20.78;;;;;;;;;;4406317;32;20108;-72
2022/11/30 00:51:39;;;;;;;;;;;;;;;;;;4406809;32;20096;-73
2022/11/30 00:54:04;;;;;;;35.75;19.75;;;;;;;;;;4404390;32;19933;-72
2022/11/30 00:56:29;;;;;;;32.33;19.27;;;;;;;;;;4407133;32;20092;-73
2022/11/30 00:58:54;;;;;;;23.95;15.85;;;;;;;;;;4406877;32;20109;-73
2022/11/30 01:01:19;;;;;;;;;;;;;;;;;;4405934;32;20379;-73
2022/11/30 01:03:45;;;;;;;27.15;15.88;;;;;;;;;;4403511;32;20346;-73
2022/11/30 01:06:10;;;;;;;;;;;;;;;;;;4405208;32;20122;-73
2022/11/30 01:08:35;;;;;;;21.73;12.73;;;;;;;;;;4405041;32;19937;-74
2022/11/30 01:11:01;;;;;;;;;;;;;;;;;;4406445;32;20523;-73
2022/11/30 01:13:26;;;;;;;21.87;14.48;;;;;;;;;;4405670;32;19934;-73
2022/11/30 01:15:52;;;;;;;;;;;;;;;;;;4404245;32;20022;-73
2022/11/30 01:18:17;;;;;;;22.25;13.10;;;;;;;;;;4406324;32;19933;-73
2022/11/30 01:20:42;;;;;;;22.62;12.85;;;;;;;;;;4406105;32;20104;-71
2022/11/30 01:23:07;;;;;;;21.23;11.35;;;;;;;;;;4404878;32;20101;-71
2022/11/30 01:25:33;;;;;;;;;;;;;;;;;;4404564;32;20505;-73
2022/11/30 01:27:58;;;;;;;22.40;15.00;;;;;;;;;;4405648;32;19995;-73
2022/11/30 01:30:23;;;;;;;;;;;;;;;;;;4403528;32;20507;-72
2022/11/30 01:32:48;;;;;;;23.23;14.38;;;;;;;;;;4406009;32;19933;-71
2022/11/30 01:35:13;;;;;;;24.04;14.96;;;;;;;;;;4403960;32;20140;-72
2022/11/30 01:37:38;;;;;;;;;;;;;;;;;;4405844;32;20084;-71
2022/11/30 01:40:04;;;;;;;37.85;17.08;;;;;;;;;;4405422;32;19944;-71
2022/11/30 01:42:29;;;;;;;25.10;16.58;;;;;;;;;;4405160;32;20121;-72
2022/11/30 01:44:54;;;;;;;;;;;;;;;;;;4403676;32;20428;-71
2022/11/30 01:47:21;;;;;;;28.20;17.62;;;;;;;;;;4403493;32;20080;-72
2022/11/30 01:49:50;;;;;;;23.90;16.37;;;;;;;;;;4402844;32;20215;-72
2022/11/30 01:52:15;;;;;;;24.67;18.00;;;;;;;;;;4403711;32;20030;-72
2022/11/30 01:54:40;;;;;;;;;;;;;;;;;;4403584;32;20072;-72
2022/11/30 01:57:14;;;;;;;32.20;19.33;;;;;;;;;;4404599;32;19948;-74
2022/11/30 01:59:39;;;;;;;30.27;20.45;;;;;;;;;;4406472;32;20225;-73
2022/11/30 02:02:05;;;;;;;;;;;;;;;;;;4404896;32;20023;-72
2022/11/30 02:04:31;;;;;;;25.88;19.92;;;;;;;;;;4406896;32;20007;-72
2022/11/30 02:06:57;;;;;;;29.85;20.80;;;;;;;;;;4408576;32;20042;-74
2022/11/30 02:09:22;;;;;;;;;;;;;;;;;;4406177;32;20083;-71
2022/11/30 02:11:48;;;;;;;36.65;22.35;;;;;;;;;;4408744;32;20340;-71
2022/11/30 02:14:22;;;;;;;27.52;20.12;;;;;;;;;;4402548;32;20230;-72
2022/11/30 02:16:52;;;;;;;31.12;21.35;;;;;;;;;;4399319;32;20034;-72
2022/11/30 02:19:37;;;;;;;38.38;23.05;;;;;;;;;;4407974;32;20083;-72
2022/11/30 02:22:21;;;;;;;37.33;23.45;;;;;;;;;;4406214;32;20054;-73
2022/11/30 02:24:55;;;;;;;35.72;22.60;;;;;;;;;;4406625;32;20467;-73
2022/11/30 02:27:26;;;;;;;37.88;23.33;;;;;;;;;;4408746;32;20048;-72
2022/11/30 02:30:02;;;;;;;38.97;23.02;;;;;;;;;;4407006;32;20442;-73
2022/11/30 02:32:29;;;;;;;34.72;22.10;;;;;;;;;;4407397;32;20026;-73
2022/11/30 02:34:56;;;;;;;40.15;24.85;;;;;;;;;;4408040;32;20026;-72
2022/11/30 02:37:22;;;;;;;37.40;23.40;;;;;;;;;;4408604;32;20464;-72
2022/11/30 02:39:48;;;;;;;40.67;23.85;;;;;;;;;;4407093;32;20053;-72
2022/11/30 02:42:13;;;;;;;;;;;;;;;;;;4404269;32;20015;-72
2022/11/30 02:44:39;;;;;;;33.33;23.75;;;;;;;;;;4391181;32;20038;-72
2022/11/30 02:47:19;;;;;;;37.45;26.48;;;;;;;;;;4393447;32;20450;-73
2022/11/30 02:49:54;;;;;;;42.92;27.10;;;;;;;;;;4393821;32;20018;-73
2022/11/30 02:52:22;;;;;;;41.85;24.42;;;;;;;;;;4393670;32;20092;-71
2022/11/30 02:54:48;;;;;;;34.72;23.10;;;;;;;;;;4392975;32;20035;-73
2022/11/30 02:57:13;;;;;;;;;;;;;;;;;;4389902;32;20077;-71
2022/11/30 02:59:38;;;;;;;47.05;27.83;;;;;;;;;;4391586;32;19973;-72
2022/11/30 03:02:03;;;;;;;;;;;;;;;;;;4391645;32;20177;-72
2022/11/30 03:04:28;;;;;;;40.88;25.65;;;;;;;;;;4405224;32;19994;-73
2022/11/30 03:06:54;;;;;;;40.83;25.33;;;;;;;;;;4408579;32;20026;-73
2022/11/30 03:09:19;;;;;;;;;;;;;;;;;;4408512;32;20085;-72
2022/11/30 03:11:44;;;;;;;37.72;24.92;;;;;;;;;;4408185;32;19933;-72
2022/11/30 03:14:09;;;;;;;45.90;27.77;;;;;;;;;;4406874;32;20057;-72
2022/11/30 03:16:34;;;;;;;;;;;;;;;;;;4406661;32;20050;-72
2022/11/30 03:18:59;;;;;;;41.75;25.70;;;;;;;;;;4408563;32;19934;-72
2022/11/30 03:21:24;;;;;;;35.45;24.70;;;;;;;;;;4407548;32;20433;-73
2022/11/30 03:23:50;;;;;;;43.72;28.83;;;;;;;;;;4406634;32;20026;-72
2022/11/30 03:26:15;;;;;;;46.10;28.42;;;;;;;;;;4406543;32;20057;-73
2022/11/30 03:28:40;;;;;;;;;;;;;;;;;;4406858;32;20174;-72
2022/11/30 03:31:05;;;;;;;51.90;29.58;;;;;;;;;;4407670;32;19975;-73
2022/11/30 03:33:30;;;;;;;;;;;;;;;;;;4398944;32;20169;-71
2022/11/30 03:36:02;;;;;;;44.72;29.10;;;;;;;;;;4402252;32;19965;-73
2022/11/30 03:38:28;;;;;;;59.83;33.05;;;;;;;;;;4406460;32;20038;-72
2022/11/30 03:40:53;;;;;;;;;;;;;;;;;;4408489;32;20351;-72
2022/11/30 03:43:18;;;;;;;36.72;24.02;;;;;;;;;;4408343;32;19933;-72
2022/11/30 03:45:44;;;;;;;43.22;28.98;;;;;;;;;;4407675;32;20068;-72
2022/11/30 03:48:09;;;;;;;;;;;;;;;;;;4406381;32;20046;-72
2022/11/30 03:50:34;;;;;;;55.15;30.37;;;;;;;;;;4407725;32;19933;-71
2022/11/30 03:52:59;;;;;;;;;;;;;;;;;;4408145;32;20111;-72
2022/11/30 03:55:24;;;;;;;45.05;26.58;;;;;;;;;;4406264;32;19944;-71
2022/11/30 03:57:49;;;;;;;44.03;25.58;;;;;;;;;;4408003;32;20057;-71
2022/11/30 04:00:14;;;;;;;;;;;;;;;;;;4406291;32;20053;-71
2022/11/30 04:02:40;;;;;;;52.25;31.05;;;;;;;;;;4400192;32;19973;-72
2022/11/30 04:05:05;;;;;;;;;;;;;;;;;;4391970;32;20599;-72
2022/11/30 04:07:30;;;;;;;41.28;26.12;;;;;;;;;;4391920;32;20279;-73
2022/11/30 04:09:55;;;;;;;;;;;;;;;;;;4391069;32;20118;-73
2022/11/30 04:12:20;;;;;;;54.50;31.83;;;;;;;;;;4392351;32;19938;-72
2022/11/30 04:14:46;;;;;;;35.47;22.73;;;;;;;;;;4392474;32;20113;-73
2022/11/30 04:17:11;;;;;;;;;;;;;;;;;;4392295;32;20026;-72
2022/11/30 04:19:36;;;;;;;45.45;27.50;;;;;;;;;;4390269;32;19946;-72
2022/11/30 04:22:01;;;;;;;53.30;29.95;;;;;;;;;;4390363;32;20027;-73
2022/11/30 04:24:26;;;;;;;;;;;;;;;;;;4392092;32;20034;-72
2022/11/30 04:26:51;;;;;;;50.80;29.52;;;;;;;;;;4389865;32;19942;-72
2022/11/30 04:29:16;;;;;;;51.97;31.60;;;;;;;;;;4391551;32;20102;-73
2022/11/30 04:31:41;;;;;;;;;;;;;;;;;;4391966;32;20057;-72
2022/11/30 04:34:07;;;;;;;52.38;31.90;;;;;;;;;;4404297;32;19933;-72
2022/11/30 04:36:32;;;;;;;;;;;;;;;;;;4405953;32;20179;-71
2022/11/30 04:38:57;;;;;;;55.22;31.90;;;;;;;;;;4405536;32;19941;-72
2022/11/30 04:41:22;;;;;;;48.66;30.44;;;;;;;;;;4405714;32;20414;-73
2022/11/30 04:43:47;;;;;;;;;;;;;;;;;;4405903;32;20136;-73
2022/11/30 04:46:12;;;;;;;49.08;30.34;;;;;;;;;;4407292;32;20261;-73
2022/11/30 04:48:37;;;;;;;;;;;;;;;;;;4405299;32;20026;-73
2022/11/30 04:51:04;;;;;;;48.50;28.85;;;;;;;;;;4405530;32;20279;-72
2022/11/30 04:53:30;;;;;;;48.87;28.15;;;;;;;;;;4404679;32;20053;-72
2022/11/30 04:55:55;;;;;;;;;;;;;;;;;;4406046;32;20049;-71
2022/11/30 04:58:20;;;;;;;43.90;28.25;;;;;;;;;;4405366;32;20054;-72
2022/11/30 05:00:45;;;;;;;46.92;30.85;;;;;;;;;;4404837;32;20022;-72
2022/11/30 05:03:10;;;;;;;;;;;;;;;;;;4404490;32;20030;-72
2022/11/30 05:05:35;;;;;;;59.80;32.50;;;;;;;;;;4405977;32;19933;-73
2022/11/30 05:08:00;;;;;;;42.40;28.77;;;;;;;;;;4405634;32;20090;-72
2022/11/30 05:10:26;;;;;;;;;;;;;;;;;;4406959;32;20324;-73
2022/11/30 05:12:51;;;;;;;51.70;30.15;;;;;;;;;;4403563;32;20016;-72
2022/11/30 05:15:16;;;;;;;48.90;28.08;;;;;;;;;;4405247;32;20018;-72
2022/11/30 05:17:42;;;;;;;;;;;;;;;;;;4405247;32;20027;-72
2022/11/30 05:20:07;;;;;;;58.58;32.20;;;;;;;;;;4403612;32;19947;-72
2022/11/30 05:22:34;;;;;;;;;;;;;;;;;;4406252;32;20118;-72
2022/11/30 05:24:59;;;;;;;65.67;34.73;;;;;;;;;;4403637;32;19945;-73
2022/11/30 05:27:24;;;;;;;;;;;;;;;;;;4394067;32;20535;-74
2022/11/30 05:29:49;;;;;;;65.12;35.28;;;;;;;;;;4390798;32;20229;-72
2022/11/30 05:32:14;;;;;;;71.37;37.58;;;;;;;;;;4388076;32;20027;-72
2022/11/30 05:34:39;;;;;;;;;;;;;;;;;;4390289;32;20344;-72
2022/11/30 05:37:04;;;;;;;66.43;35.58;;;;;;;;;;4387727;32;19946;-72
2022/11/30 05:39:30;;;;;;;58.60;32.97;;;;;;;;;;4391043;32;20022;-73
2022/11/30 05:41:55;;;;;;;;;;;;;;;;;;4390794;32;20031;-73
2022/11/30 05:44:20;;;;;;;55.15;31.60;;;;;;;;;;4388480;32;19973;-73
2022/11/30 05:46:45;;;;;;;56.55;32.17;;;;;;;;;;4390781;32;20100;-73
2022/11/30 05:49:10;;;;;;;;;;;;;;;;;;4389969;32;20056;-72
2022/11/30 05:51:35;;;;;;;56.67;32.00;;;;;;;;;;4390648;32;19991;-72
2022/11/30 05:54:00;;;;;;;70.47;35.83;;;;;;;;;;4389200;32;20023;-73
2022/11/30 05:56:25;;;;;;;;;;;;;;;;;;4395864;32;20019;-73
2022/11/30 05:58:51;;;;;;;60.95;32.75;;;;;;;;;;4402201;32;19946;-71
2022/11/30 06:01:23;;;;;;;65.64;36.46;;;;;;;;;;4404528;32;20030;-71
2022/11/30 06:03:49;;;;;;;54.30;33.15;;;;;;;;;;4404905;32;20056;-74
2022/11/30 06:06:14;;;;;;;;;;;;;;;;;;4404524;32;20050;-72
2022/11/30 06:08:39;;;;;;;57.53;34.95;;;;;;;;;;4403326;32;20291;-73
2022/11/30 06:11:04;;;;;;;;;;;;;;;;;;4403785;32;20130;-72
2022/11/30 06:13:31;;;;;;;61.85;34.65;;;;;;;;;;4405345;32;19933;-72
2022/11/30 06:16:03;;;;;;;59.42;33.75;;;;;;;;;;4402918;32;20046;-73
2022/11/30 06:18:29;;;;;;;58.33;35.75;;;;;;;;;;4403409;32;20049;-72
2022/11/30 06:20:54;;;;;;;;;;;;;;;;;;4406446;32;20034;-72
2022/11/30 06:23:19;;;;;;;68.68;35.10;;;;;;;;;;4405540;32;19954;-72
2022/11/30 06:25:44;;;;;;;70.62;36.08;;;;;;;;;;4404257;32;20018;-72
2022/11/30 06:28:09;;;;;;;;;;;;;;;;;;4404587;32;20061;-73
2022/11/30 06:30:34;;;;;;;51.53;30.35;;;;;;;;;;4402334;32;19933;-72
2022/11/30 06:33:00;;;;;;;;;;;;;;;;;;4394944;32;20162;-72
2022/11/30 06:35:25;;;;;;;62.45;37.25;;;;;;;;;;4394251;32;20289;-72
2022/11/30 06:37:50;;;;;;;;;;;;;;;;;;4405350;32;20117;-73
2022/11/30 06:40:16;;;;;;;66.15;35.50;;;;;;;;;;4405027;32;20007;-74
2022/11/30 06:42:41;;;;;;;63.00;35.38;;;;;;;;;;4399756;32;20360;-73
2022/11/30 06:45:06;;;;;;;;;;;;;;;;;;4403190;32;20094;-73
2022/11/30 06:47:32;;;;;;;62.08;35.36;;;;;;;;;;4403934;32;19945;-73
2022/11/30 06:49:57;;;;;;;;;;;;;;;;;;4397369;32;20412;-74
2022/11/30 06:52:22;;;;;;;56.15;33.08;;;;;;;;;;4392867;32;20341;-74
2022/11/30 06:54:47;;;;;;;;;;;;;;;;;;4394617;32;20157;-73
2022/11/30 06:57:12;;;;;;;61.63;33.53;;;;;;;;;;4395146;32;19942;-72
2022/11/30 06:59:41;;;;;;;62.33;36.28;;;;;;;;;;4392464;32;20319;-73
2022/11/30 07:02:08;;;;;;;65.25;37.55;;;;;;;;;;4393041;32;20031;-73
2022/11/30 07:04:33;;;;;;;58.03;31.90;;;;;;;;;;4389964;32;20030;-74
2022/11/30 07:06:59;;;;;;;;;;;;;;;;;;4392116;32;20084;-73
2022/11/30 07:09:24;;;;;;;59.45;35.58;;;;;;;;;;4390750;32;19980;-74
2022/11/30 07:11:49;;;;;;;59.47;33.83;;;;;;;;;;4390840;32;20066;-73
2022/11/30 07:14:14;;;;;;;;;;;;;;;;;;4392749;32;20027;-73
2022/11/30 07:16:40;;;;;;;60.40;34.03;;;;;;;;;;4391705;32;19999;-73
2022/11/30 07:19:05;;;;;;;60.83;35.58;;;;;;;;;;4392132;32;20027;-72
2022/11/30 07:21:30;;;;;;;;;;;;;;;;;;4390369;32;20068;-73
2022/11/30 07:26:39;;;;;;;51.45;32.38;;;;;;;;;;4399773;32;20044;-73
2022/11/30 07:29:04;;;;;;;;;;;;;;;;;;4421883;32;20057;-73
2022/11/30 07:31:31;;;;;;;64.12;36.25;;;;;;;;;;4422644;32;19949;-73
2022/11/30 07:33:56;;;;;;;64.45;35.30;;;;;;;;;;4397650;32;20022;-74
2022/11/30 07:36:21;;;;;;;;;;;;;;;;;;4393606;32;20064;-73
2022/11/30 07:38:47;;;;;;;51.70;31.20;;;;;;;;;;4396386;32;19956;-73
2022/11/30 07:41:13;;;;;;;67.45;38.80;;;;;;;;;;4404296;32;20030;-74
2022/11/30 07:43:38;;;;;;;63.10;37.53;;;;;;;;;;4403875;32;20038;-73
2022/11/30 07:46:03;;;;;;;;;;;;;;;;;;4394025;32;20404;-73
2022/11/30 07:48:28;;;;;;;63.55;36.53;;;;;;;;;;4402535;32;19988;-74
2022/11/30 07:50:53;;;;;;;;;;;;;;;;;;4396496;32;20295;-74
2022/11/30 07:53:19;;;;;;;57.25;31.17;;;;;;;;;;4397003;32;19969;-75
2022/11/30 07:55:44;;;;;;;60.33;35.67;;;;;;;;;;4395145;32;20027;-73
2022/11/30 07:58:10;;;;;;;60.20;35.72;;;;;;;;;;4395998;32;20084;-74
2022/11/30 08:00:35;;;;;;;;;;;;;;;;;;4395180;32;20039;-73
2022/11/30 08:03:00;;;;;;;59.83;35.92;;;;;;;;;;4396348;32;19937;-74
2022/11/30 08:05:25;;;;;;;;;;;;;;;;;;4394602;32;20347;-74
2022/11/30 08:07:51;;;;;;;64.30;35.17;;;;;;;;;;4395787;32;19988;-74
2022/11/30 08:10:17;;;;;;;54.47;33.53;;;;;;;;;;4397341;32;20097;-74
2022/11/30 08:12:42;;;;;;;;;;;;;;;;;;4395592;32;20132;-74
2022/11/30 08:15:08;;;;;;;61.92;33.80;;;;;;;;;;4399138;32;19957;-73
2022/11/30 08:17:33;;;;;;;56.17;34.50;;;;;;;;;;4403496;32;20043;-74
2022/11/30 08:19:58;;;;;;;;;;;;;;;;;;4403302;32;20177;-74
2022/11/30 08:22:23;;;;;;;64.05;34.65;;;;;;;;;;4403522;32;19972;-73
2022/11/30 08:24:48;;;;;;;59.00;34.30;;;;;;;;;;4404965;32;20050;-74
2022/11/30 08:27:14;;;;;;;;;;;;;;;;;;4404986;32;20050;-74
2022/11/30 08:29:39;;;;;;;62.10;36.53;;;;;;;;;;4403356;32;19975;-74
2022/11/30 08:32:04;;;;;;;;;;;;;;;;;;4404409;32;20115;-73
2022/11/30 08:34:29;;;;;;;71.45;37.35;;;;;;;;;;4405602;32;19933;-74
2022/11/30 08:36:54;;;;;;;74.62;35.72;;;;;;;;;;4404476;32;20034;-74
2022/11/30 08:39:20;;;;;;;81.34;36.38;;;;;;;;;;4406145;32;20058;-74
2022/11/30 08:41:45;;;;;;;;;;;;;;;;;;4406464;32;20105;-73
2022/11/30 08:44:10;;;;;;;65.57;35.45;;;;;;;;;;4404864;32;19969;-73
2022/11/30 08:46:36;;;;;;;70.95;35.88;;;;;;;;;;4403726;32;20026;-72
2022/11/30 08:49:02;;;;;;;69.80;35.50;;;;;;;;;;4404921;32;20052;-73
2022/11/30 08:51:27;;;;;;;;;;;;;;;;;;4405566;32;20019;-74
2022/11/30 08:53:52;;;;;;;64.40;35.38;;;;;;;;;;4404514;32;19945;-73
2022/11/30 08:56:18;;;;;;;64.75;37.20;;;;;;;;;;4404447;32;20052;-75
2022/11/30 08:58:44;;;;;;;60.53;34.95;;;;;;;;;;4406631;32;20030;-73
2022/11/30 09:01:09;;;;;;;;;;;;;;;;;;4405813;32;20022;-73
2022/11/30 09:03:34;;;;;;;59.17;36.08;;;;;;;;;;4405205;32;19967;-73
2022/11/30 09:06:06;;;;;;;67.35;38.63;;;;;;;;;;4406589;32;20073;-72
2022/11/30 09:08:31;;;;;;;62.60;38.67;;;;;;;;;;4405078;32;20056;-74
2022/11/30 09:10:57;;;;;;;;;;;;;;;;;;4406411;32;20030;-74
2022/11/30 09:13:22;;;;;;;62.83;37.40;;;;;;;;;;4405955;32;19976;-73
2022/11/30 09:15:47;;;;;;;;;;;;;;;;;;4404540;32;20122;-72
2022/11/30 09:18:13;;;;;;;60.92;34.78;;;;;;;;;;4404487;32;20283;-73
2022/11/30 09:20:38;;;;;;;47.72;31.62;;;;;;;;;;4405218;32;20034;-73
2022/11/30 09:23:03;;;;;;;;;;;;;;;;;;4406728;32;20060;-74
2022/11/30 09:25:28;;;;;;;45.67;29.50;;;;;;;;;;4404993;32;19992;-73
2022/11/30 09:27:53;;;;;;;;;;;;;;;;;;4404604;32;20154;-73
2022/11/30 09:30:19;;;;;;;49.95;30.25;;;;;;;;;;4404208;32;20337;-75
2022/11/30 09:32:44;;;;;;;47.75;29.98;;;;;;;;;;4403783;32;20030;-74
2022/11/30 09:35:09;;;;;;;46.53;28.90;;;;;;;;;;4404468;32;20038;-73
2022/11/30 09:37:34;;;;;;;;;;;;;;;;;;4406367;32;20019;-74
2022/11/30 09:39:59;;;;;;;46.30;28.67;;;;;;;;;;4405660;32;20001;-75
2022/11/30 09:42:27;;;;;;;49.05;31.20;;;;;;;;;;4406172;32;20442;-73
2022/11/30 09:45:01;;;;;;;48.05;30.62;;;;;;;;;;4405687;32;20087;-74
2022/11/30 09:47:38;;;;;;;52.42;34.55;;;;;;;;;;4405567;32;20035;-73
2022/11/30 09:50:12;;;;;;;43.47;28.35;;;;;;;;;;4406092;32;20022;-74
2022/11/30 09:52:43;;;;;;;44.33;27.40;;;;;;;;;;4406217;32;20046;-74
2022/11/30 09:55:09;;;;;;;47.17;28.30;;;;;;;;;;4402119;32;20381;-74
2022/11/30 09:57:34;;;;;;;;;;;;;;;;;;4389760;32;20057;-74
2022/11/30 10:00:01;;;;;;;40.88;27.50;;;;;;;;;;4390390;32;19976;-74
2022/11/30 10:02:36;;;;;;;37.97;26.40;;;;;;;;;;4390339;32;20057;-74
2022/11/30 10:05:01;;;;;;;41.80;25.65;;;;;;;;;;4390210;32;20317;-74
2022/11/30 10:07:27;;;;;;;;;;;;;;;;;;4391614;32;20030;-74
2022/11/30 10:10:03;;;;;;;40.75;24.95;;;;;;;;;;4388608;32;19968;-74
2022/11/30 10:12:33;;;;;;;39.30;24.05;;;;;;;;;;4390202;32;20065;-74
2022/11/30 10:15:17;;;;;;;35.85;24.25;;;;;;;;;;4390485;32;20073;-73
2022/11/30 10:17:49;;;;;;;34.17;24.20;;;;;;;;;;4389192;32;20038;-74
2022/11/30 10:20:32;;;;;;;36.38;22.20;;;;;;;;;;4390315;32;20064;-73
2022/11/30 10:22:57;;;;;;;33.22;24.45;;;;;;;;;;4388778;32;20073;-73
2022/11/30 10:25:22;;;;;;;;;;;;;;;;;;4392235;32;20404;-71
2022/11/30 10:27:49;;;;;;;34.38;22.02;;;;;;;;;;4406736;32;19961;-73
2022/11/30 10:30:16;;;;;;;36.25;22.37;;;;;;;;;;4408134;32;20089;-73
2022/11/30 10:32:43;;;;;;;33.20;21.77;;;;;;;;;;4405339;32;20113;-72
2022/11/30 10:35:18;;;;;;;29.12;20.10;;;;;;;;;;4402289;32;20038;-73
2022/11/30 10:37:44;;;;;;;32.55;21.48;;;;;;;;;;4400376;32;20030;-73
2022/11/30 10:40:09;;;;;;;;;;;;;;;;;;4407047;32;20052;-73
2022/11/30 10:42:43;;;;;;;26.52;18.40;;;;;;;;;;4406888;32;19968;-73
2022/11/30 10:45:12;;;;;;;34.08;20.83;;;;;;;;;;4407248;32;20368;-73
2022/11/30 10:47:41;;;;;;;24.05;18.40;;;;;;;;;;4408505;32;20030;-73
2022/11/30 10:50:06;;;;;;;30.42;20.00;;;;;;;;;;4407108;32;20042;-74
2022/11/30 10:52:32;;;;;;;;;;;;;;;;;;4407323;32;20080;-73
2022/11/30 10:54:57;;;;;;;32.65;21.83;;;;;;;;;;4405989;32;20359;-73
2022/11/30 10:57:24;;;;;;;29.00;21.35;;;;;;;;;;4407012;32;20026;-73
2022/11/30 10:59:52;;;;;;;29.37;21.52;;;;;;;;;;4408476;32;20031;-73
2022/11/30 11:02:35;;;;;;;23.35;17.27;;;;;;;;;;4406948;32;20026;-73
2022/11/30 11:05:17;;;;;;;25.70;16.00;;;;;;;;;;4408003;32;20134;-72
2022/11/30 11:07:45;;;;;;;22.52;15.43;;;;;;;;;;4408336;32;20026;-73
2022/11/30 11:10:14;;;;;;;21.05;15.15;;;;;;;;;;4407073;32;20054;-73
2022/11/30 11:12:45;;;;;;;22.13;16.62;;;;;;;;;;4407646;32;20034;-73
2022/11/30 11:15:18;;;;;;;20.80;15.75;;;;;;;;;;4407142;32;20084;-73
2022/11/30 11:17:44;;;;;;;22.37;15.65;;;;;;;;;;4407829;32;20038;-73
2022/11/30 11:20:09;;;;;;;;;;;;;;;;;;4407877;32;20091;-74
2022/11/30 11:22:36;;;;;;;20.92;14.55;;;;;;;;;;4406245;32;19942;-73
2022/11/30 11:25:10;;;;;;;22.48;15.90;;;;;;;;;;4403865;32;20055;-73
2022/11/30 11:27:35;;;;;;;20.33;14.90;;;;;;;;;;4406174;32;20375;-73
2022/11/30 11:30:01;;;;;;;;;;;;;;;;;;4422783;32;20029;-72
2022/11/30 11:32:26;;;;;;;23.95;16.35;;;;;;;;;;4400576;32;19945;-72
2022/11/30 11:34:52;;;;;;;26.02;16.35;;;;;;;;;;4392377;32;20031;-73
2022/11/30 11:37:21;;;;;;;23.90;17.48;;;;;;;;;;4412387;32;20045;-73
2022/11/30 11:40:02;;;;;;;25.75;20.02;;;;;;;;;;4395245;32;20030;-73
2022/11/30 11:42:29;;;;;;;26.77;16.08;;;;;;;;;;4400883;32;20030;-73
2022/11/30 11:44:56;;;;;;;23.85;16.52;;;;;;;;;;4406121;32;20030;-72
2022/11/30 11:47:25;;;;;;;22.83;17.00;;;;;;;;;;4405286;32;20061;-73
2022/11/30 11:49:51;;;;;;;22.23;16.48;;;;;;;;;;4404539;32;20084;-73
2022/11/30 11:52:16;;;;;;;20.73;16.17;;;;;;;;;;4405306;32;20091;-73
2022/11/30 11:54:41;;;;;;;;;;;;;;;;;;4403983;32;20030;-73
2022/11/30 11:57:11;;;;;;;20.27;16.00;;;;;;;;;;4404825;32;20271;-73
2022/11/30 11:59:45;;;;;;;20.30;15.70;;;;;;;;;;4406239;32;20056;-73
2022/11/30 12:02:29;;;;;;;18.80;16.08;;;;;;;;;;4406468;32;20061;-73
2022/11/30 12:05:01;;;;;;;23.15;16.75;;;;;;;;;;4405295;32;20469;-73
2022/11/30 12:07:35;;;;;;;21.62;16.12;;;;;;;;;;4405223;32;20038;-73
2022/11/30 12:10:12;;;;;;;24.77;18.17;;;;;;;;;;4404969;32;20035;-73
2022/11/30 12:12:38;;;;;;;25.95;19.33;;;;;;;;;;4412921;32;20382;-72
2022/11/30 12:15:03;;;;;;;;;;;;;;;;;;4422451;32;20101;-72
2022/11/30 12:17:41;;;;;;;25.77;19.30;;;;;;;;;;4403201;32;19957;-72
2022/11/30 12:20:30;;;;;;;29.83;20.40;;;;;;;;;;4392017;32;20022;-73
2022/11/30 12:23:06;;;;;;;27.98;19.87;;;;;;;;;;4390270;32;20023;-73
2022/11/30 12:25:48;;;;;;;27.15;19.75;;;;;;;;;;4391627;32;20077;-73
2022/11/30 12:28:31;;;;;;;21.90;17.23;;;;;;;;;;4401516;32;20038;-71
2022/11/30 12:31:16;;;;;;;31.23;19.73;;;;;;;;;;4399940;32;20034;-73
2022/11/30 12:33:44;;;;;;;23.62;18.83;;;;;;;;;;4395287;32;20092;-73
2022/11/30 12:36:18;;;;;;;23.12;17.23;;;;;;;;;;4394652;32;20031;-72
2022/11/30 12:39:14;;;;;;;18.17;14.87;;;;;;;;;;4395481;32;20039;-72
2022/11/30 12:41:49;;;;;;;23.52;16.42;;;;;;;;;;4390533;32;20072;-74
2022/11/30 12:44:33;;;;;;;19.62;15.07;;;;;;;;;;4397141;32;20026;-72
2022/11/30 12:46:58;;;;;;;21.85;17.25;;;;;;;;;;4394933;32;20383;-72
2022/11/30 12:49:33;;;;;;;19.70;16.17;;;;;;;;;;4397162;32;20035;-71
2022/11/30 12:52:18;;;;;;;23.20;17.73;;;;;;;;;;4395060;32;20091;-72
2022/11/30 12:54:44;;;;;;;24.33;16.73;;;;;;;;;;4395907;32;20053;-72
2022/11/30 12:57:09;;;;;;;;;;;;;;;;;;4399568;32;20445;-71
2022/11/30 12:59:41;;;;;;;26.85;17.67;;;;;;;;;;4395201;32;19948;-73
2022/11/30 13:02:33;;;;;;;25.83;18.37;;;;;;;;;;4395689;32;20423;-73
2022/11/30 13:05:02;;;;;;;28.95;20.90;;;;;;;;;;4388628;32;20068;-72
2022/11/30 13:07:36;;;;;;;28.55;18.75;;;;;;;;;;4396032;32;20034;-72
2022/11/30 13:10:07;;;;;;;30.40;21.48;;;;;;;;;;4399479;32;20089;-72
2022/11/30 13:12:36;;;;;;;30.65;22.58;;;;;;;;;;4395080;32;20162;-72
2022/11/30 13:15:06;;;;;;;33.47;21.85;;;;;;;;;;4402465;32;20046;-72
2022/11/30 13:17:31;;;;;;;33.95;23.70;;;;;;;;;;4400223;32;20436;-73
2022/11/30 13:19:56;;;;;;;;;;;;;;;;;;4396132;32;20030;-73
2022/11/30 13:22:22;;;;;;;35.00;23.70;;;;;;;;;;4395096;32;20068;-72
2022/11/30 13:24:47;;;;;;;;;;;;;;;;;;4394704;32;20030;-71
2022/11/30 13:27:18;;;;;;;33.58;23.87;;;;;;;;;;4394243;32;20327;-73
2022/11/30 13:30:03;;;;;;;31.85;23.40;;;;;;;;;;4394976;32;20069;-73
2022/11/30 13:32:31;;;;;;;40.83;25.17;;;;;;;;;;4393126;32;20107;-71
2022/11/30 13:35:15;;;;;;;43.20;27.42;;;;;;;;;;4395147;32;20031;-72
2022/11/30 13:37:41;;;;;;;34.72;25.67;;;;;;;;;;4395737;32;20120;-73
2022/11/30 13:40:06;;;;;;;;;;;;;;;;;;4397007;32;20392;-72
2022/11/30 13:42:37;;;;;;;38.38;25.10;;;;;;;;;;4396263;32;19981;-72
2022/11/30 13:45:11;;;;;;;37.58;26.58;;;;;;;;;;4396353;32;20053;-72
2022/11/30 13:47:37;;;;;;;40.60;25.92;;;;;;;;;;4395803;32;20111;-72
2022/11/30 13:50:04;;;;;;;;;;;;;;;;;;4394994;32;20034;-71
2022/11/30 13:52:48;;;;;;;36.92;25.40;;;;;;;;;;4395721;32;19990;-73
2022/11/30 13:55:33;;;;;;;35.33;24.55;;;;;;;;;;4396222;32;20042;-71
2022/11/30 13:57:58;;;;;;;39.33;27.02;;;;;;;;;;4378334;32;20060;-71
2022/11/30 14:00:24;;;;;;;;;;;;;;;;;;4396733;32;20065;-71
2022/11/30 14:02:52;;;;;;;36.38;26.15;;;;;;;;;;4397365;32;19975;-72
2022/11/30 14:05:18;;;;;;;43.33;27.98;;;;;;;;;;4398401;32;20200;-72
2022/11/30 14:07:49;;;;;;;43.10;26.15;;;;;;;;;;4399411;32;20163;-72
2022/11/30 14:10:26;;;;;;;39.15;27.80;;;;;;;;;;4397097;32;20030;-71
2022/11/30 14:13:01;;;;;;;37.30;26.65;;;;;;;;;;4396761;32;20103;-71
2022/11/30 14:15:30;;;;;;;43.78;29.52;;;;;;;;;;4398607;32;20026;-71
2022/11/30 14:17:55;;;;;;;42.83;29.12;;;;;;;;;;4399751;32;20150;-75
2022/11/30 14:20:23;;;;;;;;;;;;;;;;;;4399343;32;20200;-71
2022/11/30 14:22:49;;;;;;;39.20;28.02;;;;;;;;;;4403677;32;19965;-72
2022/11/30 14:25:16;;;;;;;46.22;30.45;;;;;;;;;;4399079;32;20054;-72
2022/11/30 14:27:42;;;;;;;46.72;29.67;;;;;;;;;;4404020;32;20109;-72
2022/11/30 14:30:14;;;;;;;45.15;31.05;;;;;;;;;;4400570;32;20026;-72
2022/11/30 14:32:41;;;;;;;49.38;30.62;;;;;;;;;;4401186;32;20091;-74
2022/11/30 14:35:14;;;;;;;48.40;29.98;;;;;;;;;;4397468;32;20117;-73
2022/11/30 14:37:44;;;;;;;45.58;30.77;;;;;;;;;;4397496;32;20091;-72
2022/11/30 14:40:16;;;;;;;46.00;30.05;;;;;;;;;;4396828;32;20047;-72
2022/11/30 14:42:44;;;;;;;53.90;32.72;;;;;;;;;;4401719;32;20104;-72
2022/11/30 14:45:20;;;;;;;54.10;32.75;;;;;;;;;;4398167;32;20023;-73
2022/11/30 14:47:49;;;;;;;52.62;31.27;;;;;;;;;;4397457;32;20030;-72
2022/11/30 14:50:20;;;;;;;52.38;31.87;;;;;;;;;;4400666;32;20367;-72
2022/11/30 14:52:51;;;;;;;54.72;33.55;;;;;;;;;;4396567;32;20082;-71
2022/11/30 14:55:37;;;;;;;46.83;31.60;;;;;;;;;;4406096;32;20018;-71